Weather at Offutt Air Force Base

Public forecast

Using degrees Fahrenheit for public forecast. Weather courtesy of forecast.io.

Current aviation weather report (METAR) for Offutt Air Force Base

Retrieved 2022/08/15 17:56 UTC (11 minutes ago):

KOFF 151756Z COR 12010KT 10SM -SHRA FEW008 SCT010 BKN050 BKN100 21/18 A3002 RMK AO2A P0000 60068 AO2A SLP165 P0000 60068 T02070183 10207 20185 55007 PWINO PNO FZRANO TSNO VISNO RWY12 CHINO RWY12 COR 1759

Aviation forecast (TAF) for Offutt Air Force Base

Forecast is more than 12 hours old.

Retrieved 2021/02/28 10:03 UTC (1 year ago):

TAF TAF KOFF 281000Z 2810/0116 28012G18KT 9999 BKN015 QNH2972INS BECMG 2810/2811 32015G30KT 9999 BKN020 QNH2991INS BECMG 2817/2818 34015G25KT 9999 SCT020 QNH3001INS BECMG 2820/2821 35012G18KT 9999 SKC QNH3012INS BECMG 0104/0105 VRB06KT 9999 SKC QNH3023INS BECMG 0114/0115 29010G15KT 9999 SKC QNH3025INS TX07/2820Z TNM01/0106Z